Time;durP1;ratioP1;P1;durP2;ratioP2;P2;SDS_P1;SDS_P2;PMS_P1;PMS_P2;Temp;Humidity;BMP_temperature;BMP_pressure;BME280_temperature;BME280_humidity;BME280_pressure;Samples;Min_cycle;Max_cycle;Signal;HPM_P1;HPM_P2
2022/09/19 00:01:39;;;;;;;1.17;0.90;;;;;;;12.16;59.44;99824.38;124862;1096;104227;-78
2022/09/19 00:04:14;;;;;;;6.60;1.32;;;;;;;12.14;59.52;99829.61;124853;1096;102758;-78
2022/09/19 00:06:47;;;;;;;2.27;0.70;;;;;;;12.14;59.60;99833.96;125704;1096;102267;-78
2022/09/19 00:09:20;;;;;;;0.63;0.63;;;;;;;12.14;59.38;99833.96;125715;1095;104143;-78
2022/09/19 00:11:53;;;;;;;1.07;0.90;;;;;;;12.12;59.30;99836.56;124837;1096;102910;-78
2022/09/19 00:14:26;;;;;;;1.53;1.00;;;;;;;12.12;59.49;99841.81;124830;1099;104307;-78
2022/09/19 00:17:00;;;;;;;1.23;0.83;;;;;;;12.10;59.35;99840.91;125733;1099;104332;-78
2022/09/19 00:19:31;;;;;;;2.83;0.90;;;;;;;12.09;59.14;99839.16;124866;1098;104176;-78
2022/09/19 00:22:04;;;;;;;2.03;1.10;;;;;;;12.09;59.23;99847.05;124809;1099;104244;-78
2022/09/19 00:24:49;;;;;;;0.93;0.90;;;;;;;12.09;59.23;99838.25;124823;1096;104197;-77
2022/09/19 00:27:22;;;;;;;2.23;1.03;;;;;;;12.09;59.09;99852.31;125754;1096;104290;-78
2022/09/19 00:29:54;;;;;;;0.97;0.90;;;;;;;12.09;58.86;99851.41;124848;1095;104053;-78
2022/09/19 00:32:27;;;;;;;1.27;0.90;;;;;;;12.10;58.62;99847.93;124844;1096;104162;-78
2022/09/19 00:34:59;;;;;;;1.03;0.87;;;;;;;12.08;59.01;99847.90;124842;1099;104262;-78
2022/09/19 00:37:30;;;;;;;1.77;1.00;;;;;;;12.05;58.88;99850.47;125646;1099;104150;-78
2022/09/19 00:40:01;;;;;;;1.00;0.90;;;;;;;12.02;58.70;99843.40;124802;1099;102856;-77
2022/09/19 00:42:34;;;;;;;2.73;1.00;;;;;;;12.01;58.90;99853.88;124788;1099;104243;-78
2022/09/19 00:45:12;;;;;;;3.07;1.33;;;;;;;12.00;58.65;99860.02;124871;1095;104300;-78
2022/09/19 00:47:46;;;;;;;1.07;1.00;;;;;;;11.97;58.77;99862.59;124822;1099;101806;-77
2022/09/19 00:50:28;;;;;;;3.87;1.20;;;;;;;11.95;59.04;99865.19;124769;1099;102367;-78
2022/09/19 00:53:02;;;;;;;1.03;0.90;;;;;;;11.94;58.54;99862.53;124764;1098;102220;-77
2022/09/19 00:55:34;;;;;;;1.43;1.00;;;;;;;11.91;58.87;99867.69;124849;1097;104236;-78
2022/09/19 00:58:11;;;;;;;0.97;0.90;;;;;;;11.90;58.77;99865.91;124811;1098;104240;-77
2022/09/19 01:00:43;;;;;;;3.27;0.90;;;;;;;11.88;58.78;99869.38;126139;1098;102810;-78
2022/09/19 01:03:16;;;;;;;2.53;0.90;;;;;;;11.85;58.72;99871.07;125744;1099;104290;-78
2022/09/19 01:05:59;;;;;;;3.70;1.17;;;;;;;11.80;58.93;99868.34;125702;1099;104583;-78
2022/09/19 01:08:52;;;;;;;2.27;1.00;;;;;;;11.79;58.87;99874.45;125739;1098;104326;-78
2022/09/19 01:11:42;;;;;;;3.67;1.30;;;;;;;11.79;58.60;99871.82;124847;1099;102294;-78
2022/09/19 01:14:26;;;;;;;0.70;0.70;;;;;;;11.78;59.07;99869.16;124826;1099;104310;-78
2022/09/19 01:17:07;;;;;;;6.72;1.20;;;;;;;11.77;59.25;99883.17;124856;1099;102301;-78
2022/09/19 01:20:03;;;;;;;4.23;1.30;;;;;;;11.71;58.76;99880.42;124832;1099;104249;-78
2022/09/19 01:22:45;;;;;;;2.20;0.80;;;;;;;11.72;58.93;99892.69;125538;1099;104229;-78
2022/09/19 01:25:31;;;;;;;1.77;0.90;;;;;;;11.71;59.04;99890.94;124811;1099;101905;-78
2022/09/19 01:28:20;;;;;;;1.20;1.00;;;;;;;11.64;58.83;99896.05;124748;1099;104210;-77
2022/09/19 01:31:21;;;;;;;0.93;0.70;;;;;;;11.64;59.10;99892.52;125648;1099;104175;-78
2022/09/19 01:34:02;;;;;;;1.37;0.97;;;;;;;11.61;58.81;99898.61;125622;1099;104258;-78
2022/09/19 01:36:41;;;;;;;1.03;0.97;;;;;;;11.55;59.07;99900.23;124779;1099;104051;-78
2022/09/19 01:39:15;;;;;;;1.90;1.13;;;;;;;11.56;58.99;99897.64;124824;1098;102352;-78
2022/09/19 01:41:57;;;;;;;2.33;1.07;;;;;;;11.55;59.06;99903.73;124800;1099;104238;-78
2022/09/19 01:44:30;;;;;;;3.20;1.93;;;;;;;11.52;59.04;99901.04;124783;1099;104150;-77
2022/09/19 01:47:14;;;;;;;2.42;1.10;;;;;;;11.53;58.98;99901.91;124819;1096;104205;-77
2022/09/19 01:49:52;;;;;;;1.67;0.80;;;;;;;11.50;59.24;99916.77;124699;1098;104668;-78
2022/09/19 01:52:38;;;;;;;5.00;1.30;;;;;;;11.48;59.01;99918.48;124776;1099;104162;-78
2022/09/19 01:55:22;;;;;;;3.73;1.03;;;;;;;11.47;58.90;99927.20;125618;1099;109884;-78
2022/09/19 01:58:09;;;;;;;2.40;1.03;;;;;;;11.46;59.27;99928.05;124782;1099;104243;-77
2022/09/19 02:00:49;;;;;;;2.63;1.20;;;;;;;11.48;59.24;99926.37;124790;1099;104236;-78
2022/09/19 02:03:27;;;;;;;3.10;1.20;;;;;;;11.48;59.19;99921.11;124726;1098;104163;-78
2022/09/19 02:06:10;;;;;;;3.67;1.40;;;;;;;11.46;59.09;99927.17;125657;1099;104342;-78
2022/09/19 02:08:48;;;;;;;3.53;1.00;;;;;;;11.46;59.36;99927.17;125707;1099;104217;-78
2022/09/19 02:11:25;;;;;;;3.10;1.10;;;;;;;11.45;59.46;99934.17;124745;1099;104341;-78
2022/09/19 02:14:00;;;;;;;4.93;1.07;;;;;;;11.43;59.46;99935.86;124726;1099;104214;-77
2022/09/19 02:16:44;;;;;;;1.37;1.00;;;;;;;11.43;59.15;99935.86;124815;1098;102196;-78
2022/09/19 02:19:19;;;;;;;3.20;1.45;;;;;;;11.43;59.40;99940.23;124799;1099;104269;-77
2022/09/19 02:21:54;;;;;;;2.20;1.20;;;;;;;11.41;59.34;99936.70;125680;1099;104197;-78
2022/09/19 02:24:30;;;;;;;1.67;1.17;;;;;;;11.38;59.41;99940.13;125607;1099;104173;-78
2022/09/19 02:27:07;;;;;;;4.03;1.10;;;;;;;11.36;59.60;99948.81;124801;1099;102952;-78
2022/09/19 02:29:45;;;;;;;2.03;1.37;;;;;;;11.33;59.48;99945.27;125627;1099;104182;-78
2022/09/19 02:32:19;;;;;;;4.00;1.20;;;;;;;11.33;59.37;99952.28;124764;1099;104278;-78
2022/09/19 02:34:53;;;;;;;2.65;1.22;;;;;;;11.31;59.19;99959.20;124754;1098;104163;-77
2022/09/19 02:37:30;;;;;;;2.27;1.40;;;;;;;11.30;59.20;99962.70;124774;1099;104162;-78
2022/09/19 02:40:05;;;;;;;3.50;1.30;;;;;;;11.28;59.52;99965.30;124810;1099;104747;-78
2022/09/19 02:42:55;;;;;;;3.10;1.20;;;;;;;11.24;59.56;99958.19;124792;1099;104069;-78
2022/09/19 02:45:32;;;;;;;3.63;1.50;;;;;;;11.25;59.37;99969.56;124764;1099;101931;-77
2022/09/19 02:48:18;;;;;;;3.50;1.50;;;;;;;11.24;59.42;99965.19;125674;1099;104194;-77
2022/09/19 02:50:59;;;;;;;1.33;1.13;;;;;;;11.23;59.41;99966.02;124885;1099;102771;-78
2022/09/19 02:53:35;;;;;;;3.80;1.30;;;;;;;11.23;59.56;99966.02;124821;1097;103095;-78
2022/09/19 02:56:13;;;;;;;3.23;1.50;;;;;;;11.23;59.58;99966.02;124723;1099;104188;-78
2022/09/19 02:58:49;;;;;;;3.93;1.60;;;;;;;11.20;59.66;99964.20;124786;1099;104271;-78
2022/09/19 03:01:25;;;;;;;2.77;1.60;;;;;;;11.18;59.98;99968.53;124816;1099;104204;-78
2022/09/19 03:04:13;;;;;;;1.70;1.40;;;;;;;11.12;59.86;99974.52;124820;1099;101816;-77
2022/09/19 03:06:54;;;;;;;6.90;1.60;;;;;;;11.07;59.62;99983.14;125632;1099;118627;-77
2022/09/19 03:09:29;;;;;;;4.63;1.53;;;;;;;11.03;60.04;99971.69;124778;1099;104149;-78
2022/09/19 03:12:04;;;;;;;4.63;1.80;;;;;;;11.04;59.97;99978.69;124781;1099;102262;-79
2022/09/19 03:14:36;;;;;;;5.00;1.60;;;;;;;11.03;59.80;99974.31;124742;1099;104130;-78
2022/09/19 03:17:09;;;;;;;6.90;1.27;;;;;;;10.99;59.92;99980.32;124857;1099;101994;-77
2022/09/19 03:19:41;;;;;;;4.70;1.50;;;;;;;10.96;60.00;99989.00;124826;1099;101901;-77
2022/09/19 03:22:12;;;;;;;5.63;1.60;;;;;;;10.95;60.13;99996.83;124745;1099;104304;-77
2022/09/19 03:24:44;;;;;;;4.13;1.27;;;;;;;10.93;60.13;100003.79;124779;1099;102263;-77
2022/09/19 03:27:15;;;;;;;3.13;1.40;;;;;;;10.93;60.30;100009.92;124827;1099;111546;-77
2022/09/19 03:29:46;;;;;;;5.87;1.37;;;;;;;10.95;60.07;100009.95;124800;1099;104232;-77
2022/09/19 03:32:17;;;;;;;1.73;1.33;;;;;;;10.96;60.03;100015.25;124753;1099;104314;-77
2022/09/19 03:34:49;;;;;;;2.07;1.20;;;;;;;10.95;60.22;100008.24;124827;1099;102781;-78
2022/09/19 03:37:20;;;;;;;2.00;1.10;;;;;;;10.94;60.16;100010.83;124828;1099;104169;-78
2022/09/19 03:39:52;;;;;;;3.97;1.13;;;;;;;10.93;60.38;100006.41;124807;1099;104188;-78
2022/09/19 03:42:24;;;;;;;1.17;0.90;;;;;;;10.86;59.94;100020.21;124765;1099;104306;-77
2022/09/19 03:44:56;;;;;;;2.83;1.33;;;;;;;10.81;60.34;100009.59;124838;1099;104169;-76
2022/09/19 03:47:27;;;;;;;5.50;1.30;;;;;;;10.82;60.34;100010.50;124760;1099;104233;-77
2022/09/19 03:49:59;;;;;;;2.37;1.40;;;;;;;10.81;60.36;100004.34;124765;1099;104162;-76
2022/09/19 03:52:33;;;;;;;2.47;1.00;;;;;;;10.80;60.57;100005.20;124755;1099;102303;-76
2022/09/19 03:55:06;;;;;;;1.77;1.10;;;;;;;10.77;60.31;100008.62;124870;1097;102750;-77
2022/09/19 03:57:41;;;;;;;1.97;1.17;;;;;;;10.78;60.22;100013.05;124817;1099;104243;-76
2022/09/19 04:00:15;;;;;;;2.47;1.30;;;;;;;10.81;60.33;100019.21;124827;1099;104217;-77
2022/09/19 04:02:52;;;;;;;3.67;1.10;;;;;;;10.79;60.73;100020.05;124843;1099;104169;-76
2022/09/19 04:05:24;;;;;;;11.55;1.75;;;;;;;10.83;60.87;100022.75;124747;1099;104160;-77
2022/09/19 04:07:57;;;;;;;3.00;1.20;;;;;;;10.85;60.63;100026.33;124757;1099;104599;-77
2022/09/19 04:10:28;;;;;;;5.40;1.40;;;;;;;10.85;60.26;100024.58;124774;1099;104163;-76
2022/09/19 04:12:59;;;;;;;6.33;1.20;;;;;;;10.89;61.00;100025.55;124753;1099;102397;-77
2022/09/19 04:15:31;;;;;;;3.53;1.47;;;;;;;10.94;60.61;100026.58;124797;1099;104157;-77
2022/09/19 04:18:03;;;;;;;5.43;1.50;;;;;;;10.98;60.86;100023.16;124788;1099;104229;-76
2022/09/19 04:20:35;;;;;;;4.03;1.40;;;;;;;11.02;60.55;100026.78;124753;1099;104249;-76
2022/09/19 04:23:27;;;;;;;4.80;1.50;;;;;;;11.08;60.76;100029.53;124922;1098;104355;-77
2022/09/19 04:26:17;;;;;;;1.47;1.37;;;;;;;11.13;60.58;100034.07;124840;1099;104182;-77
2022/09/19 04:28:49;;;;;;;6.30;1.63;;;;;;;11.16;60.65;100038.52;124928;1099;104201;-76
2022/09/19 04:31:22;;;;;;;6.07;1.40;;;;;;;11.21;61.00;100047.40;125850;1099;104159;-76
2022/09/19 04:33:56;;;;;;;6.50;1.40;;;;;;;11.27;60.75;100057.19;124918;1099;102276;-77
2022/09/19 04:36:32;;;;;;;4.53;1.67;;;;;;;11.31;60.36;100049.42;124733;1099;104411;-77
2022/09/19 04:39:04;;;;;;;4.93;1.87;;;;;;;11.39;60.96;100052.25;124720;1099;102790;-77
2022/09/19 04:41:40;;;;;;;7.23;1.50;;;;;;;11.42;60.82;100057.58;124892;1099;102490;-76
2022/09/19 04:44:11;;;;;;;2.40;1.20;;;;;;;11.47;60.73;100055.95;124829;1099;104648;-76
2022/09/19 04:46:59;;;;;;;3.90;1.37;;;;;;;11.53;60.80;100059.56;124934;1099;102810;-77
2022/09/19 04:49:39;;;;;;;3.30;1.27;;;;;;;11.57;60.69;100064.05;124907;1099;102371;-77
2022/09/19 04:52:19;;;;;;;2.93;1.83;;;;;;;11.62;60.48;100065.05;126399;1098;103229;-76
2022/09/19 04:54:50;;;;;;;2.17;1.17;;;;;;;11.64;60.36;100058.98;126443;1096;102166;-77
2022/09/19 04:57:26;;;;;;;2.67;1.00;;;;;;;11.68;60.32;100059.94;126647;1099;103031;-76
2022/09/19 04:59:59;;;;;;;2.97;1.37;;;;;;;11.74;60.31;100074.98;126774;1098;104333;-77
2022/09/19 05:02:31;;;;;;;4.60;1.50;;;;;;;11.77;60.07;100080.31;125858;1099;103227;-76
2022/09/19 05:05:07;;;;;;;1.27;1.17;;;;;;;11.78;60.26;100079.44;126526;1099;104267;-76
2022/09/19 05:07:43;;;;;;;3.50;1.33;;;;;;;11.81;60.36;100082.14;125864;1099;104283;-76
2022/09/19 05:10:28;;;;;;;3.67;1.50;;;;;;;11.80;60.04;100090.91;125640;1099;102194;-76
2022/09/19 05:13:01;;;;;;;4.80;1.40;;;;;;;11.75;60.25;100090.80;125675;1099;104204;-76
2022/09/19 05:16:03;;;;;;;3.77;1.40;;;;;;;11.74;59.99;100086.38;126436;1098;104168;-76
2022/09/19 05:18:38;;;;;;;2.60;1.37;;;;;;;11.73;60.18;100087.22;125597;1098;104444;-77
2022/09/19 05:21:14;;;;;;;3.77;1.23;;;;;;;11.75;60.25;100092.51;125712;1099;104217;-76
2022/09/19 05:23:51;;;;;;;2.40;1.10;;;;;;;11.72;60.06;100085.46;125619;1099;104152;-76
2022/09/19 05:26:24;;;;;;;2.37;1.30;;;;;;;11.71;59.86;100083.67;125645;1099;104169;-77
2022/09/19 05:29:05;;;;;;;5.10;1.60;;;;;;;11.73;60.15;100089.84;125654;1099;103288;-78
2022/09/19 05:32:10;;;;;;;2.25;1.17;;;;;;;11.75;60.15;100087.25;125595;1099;104168;-76
2022/09/19 05:35:00;;;;;;;1.60;1.20;;;;;;;11.79;60.19;100092.63;125614;1098;102856;-76
2022/09/19 05:37:51;;;;;;;4.20;1.40;;;;;;;11.84;60.16;100095.36;124792;1098;104169;-77
2022/09/19 05:40:41;;;;;;;2.83;1.47;;;;;;;11.88;59.95;100097.22;125135;1099;104329;-77
2022/09/19 05:43:20;;;;;;;5.87;1.60;;;;;;;11.94;59.78;100101.79;124721;1099;104197;-76
2022/09/19 05:45:54;;;;;;;1.27;1.10;;;;;;;12.02;60.08;100097.59;124730;1099;104166;-75
2022/09/19 05:48:26;;;;;;;2.80;1.30;;;;;;;12.10;59.95;100087.25;124716;1099;102881;-76
2022/09/19 05:50:57;;;;;;;3.80;1.20;;;;;;;12.16;60.23;100088.27;124722;1097;104163;-77
2022/09/19 05:53:54;;;;;;;2.23;1.67;;;;;;;12.25;59.98;100089.31;125673;1099;104265;-76
2022/09/19 05:56:40;;;;;;;2.43;1.20;;;;;;;12.31;59.96;100084.19;125634;1099;104254;-76
2022/09/19 05:59:13;;;;;;;6.53;1.70;;;;;;;12.35;59.80;100089.55;124810;1099;102229;-76
2022/09/19 06:01:49;;;;;;;4.07;1.60;;;;;;;12.38;59.82;100091.37;124712;1099;104252;-75
2022/09/19 06:04:40;;;;;;;4.30;2.10;;;;;;;12.40;59.69;100084.39;124781;1099;104258;-77
2022/09/19 06:07:13;;;;;;;5.10;2.10;;;;;;;12.47;59.67;100091.58;124811;1099;104628;-75
2022/09/19 06:09:52;;;;;;;4.47;2.43;;;;;;;12.57;59.72;100087.39;124728;1099;104259;-76
2022/09/19 06:12:29;;;;;;;3.67;2.13;;;;;;;12.68;59.75;100087.61;124789;1099;102922;-76
2022/09/19 06:15:09;;;;;;;2.73;1.90;;;;;;;12.80;59.58;100089.62;124740;1099;104188;-75
2022/09/19 06:17:41;;;;;;;3.53;1.80;;;;;;;12.91;59.48;100078.42;124758;1098;104262;-75
2022/09/19 06:20:39;;;;;;;;;;;;;;;13.07;59.28;100073.45;124697;1099;104274;-76
2022/09/19 06:23:36;;;;;;;2.90;1.70;;;;;;;13.21;58.98;100077.22;124728;1099;102287;-75
2022/09/19 06:26:11;;;;;;;5.53;1.87;;;;;;;13.33;59.65;100075.69;124723;1099;104290;-76
2022/09/19 06:28:43;;;;;;;3.60;1.80;;;;;;;13.48;59.64;100079.50;124667;1099;104262;-77
2022/09/19 06:31:18;;;;;;;2.87;1.33;;;;;;;13.55;59.06;100067.30;124802;1099;104201;-76
2022/09/19 06:33:58;;;;;;;3.63;1.30;;;;;;;13.72;58.98;100079.88;124918;1099;104303;-76
2022/09/19 06:36:42;;;;;;;5.67;1.20;;;;;;;13.89;59.04;100088.94;124919;1099;104299;-77
2022/09/19 06:39:23;;;;;;;1.87;1.07;;;;;;;14.02;58.27;100083.00;124912;1099;102906;-76
2022/09/19 06:42:42;;;;;;;3.60;1.43;;;;;;;14.16;58.22;100087.58;125668;1099;104306;-77
2022/09/19 06:45:52;;;;;;;2.60;1.30;;;;;;;14.31;58.58;100095.72;124336;1101;104357;-76
2022/09/19 06:48:46;;;;;;;3.63;1.10;;;;;;;14.45;58.31;100101.19;124797;1099;102753;-76
2022/09/19 06:51:35;;;;;;;2.03;1.43;;;;;;;14.65;58.03;100109.41;124978;1099;104156;-76
2022/09/19 06:54:10;;;;;;;0.80;0.80;;;;;;;14.83;58.48;100113.14;125036;1099;103263;-77
2022/09/19 06:56:46;;;;;;;2.13;1.10;;;;;;;15.00;57.23;100122.14;124954;1099;104219;-77
2022/09/19 06:59:22;;;;;;;2.57;1.23;;;;;;;15.18;57.38;100120.60;124994;1099;102381;-77
2022/09/19 07:02:10;;;;;;;7.17;2.67;;;;;;;15.38;56.55;100134.00;124993;1099;104197;-77
2022/09/19 07:04:50;;;;;;;2.53;1.50;;;;;;;15.53;56.68;100141.21;125990;1099;102490;-76
2022/09/19 07:08:31;;;;;;;;;;;;;;;;;;;;;
2022/09/19 07:11:35;;;;;;;;;;;;;;;15.79;55.69;100133.55;124676;1100;104485;-76
2022/09/19 07:14:23;;;;;;;2.20;1.47;;;;;;;15.89;56.45;100142.45;126629;1098;104197;-76
2022/09/19 07:17:15;;;;;;;2.20;1.10;;;;;;;16.00;56.44;100146.05;125918;1099;102903;-78
2022/09/19 07:20:13;;;;;;;3.77;1.40;;;;;;;16.09;55.55;100146.13;126040;1098;102311;-76
2022/09/19 07:23:27;;;;;;;2.43;1.10;;;;;;;16.17;55.53;100154.12;124786;1099;107114;-76
2022/09/19 07:26:31;;;;;;;5.67;1.50;;;;;;;16.30;55.22;100156.00;124993;1099;104207;-76
2022/09/19 07:29:08;;;;;;;3.23;1.30;;;;;;;16.38;54.97;100155.14;126932;1096;101676;-77
2022/09/19 07:31:53;;;;;;;4.33;0.97;;;;;;;16.46;54.54;100146.38;124991;1099;102854;-76
2022/09/19 07:34:52;;;;;;;6.57;1.60;;;;;;;16.58;54.26;100153.52;124801;1099;103659;-76
2022/09/19 07:37:26;;;;;;;2.87;0.97;;;;;;;16.71;53.70;100147.40;125645;1099;104253;-79
2022/09/19 07:40:18;;;;;;;3.60;1.33;;;;;;;16.82;54.15;100162.47;126372;1099;102858;-78
2022/09/19 07:43:13;;;;;;;2.30;1.00;;;;;;;16.93;53.91;100154.61;125609;1099;104177;-78
2022/09/19 07:46:17;;;;;;;2.57;1.20;;;;;;;17.05;53.51;100159.95;124709;1099;102146;-77
2022/09/19 07:49:09;;;;;;;3.60;1.05;;;;;;;17.17;53.20;100162.66;124881;1099;104173;-77
2022/09/19 07:52:05;;;;;;;1.23;0.80;;;;;;;17.26;52.54;100167.08;124761;1099;104230;-78
2022/09/19 07:54:39;;;;;;;1.30;0.90;;;;;;;17.25;52.42;100171.51;124911;1099;104166;-78
2022/09/19 07:57:12;;;;;;;1.63;0.90;;;;;;;17.23;51.98;100172.37;124845;1099;104163;-76
2022/09/19 07:59:47;;;;;;;3.93;1.50;;;;;;;17.22;51.65;100173.27;124764;1099;104297;-76
2022/09/19 08:02:20;;;;;;;1.93;1.30;;;;;;;17.27;52.24;100168.86;124920;1099;104249;-77
2022/09/19 08:04:56;;;;;;;1.47;0.82;;;;;;;17.29;51.54;100147.66;124777;1099;104249;-75
2022/09/19 08:07:31;;;;;;;3.10;1.17;;;;;;;17.48;51.23;100154.75;124764;1099;104191;-76
2022/09/19 08:10:07;;;;;;;2.50;1.50;;;;;;;17.61;50.99;100161.86;124685;1099;104213;-76
2022/09/19 08:12:47;;;;;;;2.17;1.00;;;;;;;17.72;50.98;100166.31;124814;1099;101892;-76
2022/09/19 08:15:22;;;;;;;2.57;1.00;;;;;;;17.73;51.27;100168.97;124793;1099;104328;-75
2022/09/19 08:18:13;;;;;;;4.07;1.20;;;;;;;17.68;50.04;100167.18;124658;1099;104316;-75
2022/09/19 08:20:46;;;;;;;2.90;1.00;;;;;;;17.65;49.92;100157.44;124786;1099;104225;-76
2022/09/19 08:23:22;;;;;;;2.55;1.30;;;;;;;17.66;49.84;100161.00;124801;1099;104226;-75
2022/09/19 08:26:02;;;;;;;3.57;1.07;;;;;;;17.66;49.40;100167.17;124812;1099;102852;-77
2022/09/19 08:28:37;;;;;;;4.50;0.87;;;;;;;17.59;48.83;100162.73;124819;1099;104325;-78
2022/09/19 08:31:15;;;;;;;2.10;0.90;;;;;;;17.65;48.78;100148.60;125611;1098;104744;-76
2022/09/19 08:33:50;;;;;;;4.97;1.43;;;;;;;17.73;49.27;100152.14;125651;1099;104201;-77
2022/09/19 08:36:24;;;;;;;2.13;1.07;;;;;;;17.79;48.96;100153.05;126055;1099;104300;-77
2022/09/19 08:39:08;;;;;;;5.00;1.20;;;;;;;17.90;48.74;100139.82;124795;1099;104226;-76
2022/09/19 08:42:01;;;;;;;1.63;1.00;;;;;;;18.08;48.72;100149.53;124775;1099;104290;-78
2022/09/19 08:44:49;;;;;;;2.13;1.13;;;;;;;18.25;48.33;100143.33;124862;1099;104153;-76
2022/09/19 08:47:25;;;;;;;3.30;1.20;;;;;;;18.40;48.51;100140.65;124796;1099;104216;-75
2022/09/19 08:50:04;;;;;;;2.83;1.20;;;;;;;18.60;48.05;100140.57;124821;1099;104271;-76
2022/09/19 08:52:45;;;;;;;2.70;1.13;;;;;;;18.77;47.79;100142.30;124853;1099;103363;-77
2022/09/19 08:55:26;;;;;;;2.37;1.10;;;;;;;18.91;46.90;100140.50;125104;1099;118234;-77
2022/09/19 08:58:02;;;;;;;3.47;1.30;;;;;;;19.04;47.09;100139.56;125989;1098;102241;-78
2022/09/19 09:00:54;;;;;;;2.87;0.70;;;;;;;19.19;45.66;100148.35;124904;1099;104137;-77
2022/09/19 09:03:54;;;;;;;4.30;1.30;;;;;;;19.21;45.81;100146.56;124864;1099;104159;-77
2022/09/19 09:06:38;;;;;;;2.37;1.00;;;;;;;19.13;44.97;100143.06;124966;1099;104278;-77
2022/09/19 09:09:37;;;;;;;2.97;1.20;;;;;;;19.08;44.94;100134.23;125952;1098;104185;-79
2022/09/19 09:12:26;;;;;;;2.40;1.10;;;;;;;18.99;44.58;100141.34;125851;1098;104195;-78
2022/09/19 09:15:11;;;;;;;0.90;0.87;;;;;;;18.97;45.27;100144.92;125968;1099;104169;-78
2022/09/19 09:17:50;;;;;;;1.40;0.80;;;;;;;18.87;45.69;100136.11;124894;1098;104217;-77
2022/09/19 09:20:36;;;;;;;3.27;1.23;;;;;;;18.84;44.55;100144.06;124839;1099;104150;-76
2022/09/19 09:23:15;;;;;;;2.53;0.73;;;;;;;18.82;44.33;100143.16;124761;1099;102961;-77
2022/09/19 09:26:19;;;;;;;9.73;1.83;;;;;;;18.88;44.06;100147.61;125819;1099;108035;-77
2022/09/19 09:28:56;;;;;;;2.87;1.03;;;;;;;18.84;42.31;100136.99;124836;1098;104159;-76
2022/09/19 09:31:37;;;;;;;1.80;1.10;;;;;;;18.87;43.57;100146.73;124789;1099;104497;-75
2022/09/19 09:34:36;;;;;;;4.90;1.23;;;;;;;18.99;43.74;100141.34;124779;1099;102540;-77
2022/09/19 09:37:20;;;;;;;4.67;1.00;;;;;;;19.04;43.46;100130.69;124797;1096;102762;-77
2022/09/19 09:40:09;;;;;;;4.20;1.10;;;;;;;18.99;42.65;100133.36;124816;1099;104855;-77
2022/09/19 09:43:02;;;;;;;1.83;0.90;;;;;;;19.06;43.46;100134.24;125628;1099;102473;-79
2022/09/19 09:45:43;;;;;;;3.33;1.25;;;;;;;19.13;43.01;100132.42;125635;1099;102161;-77
2022/09/19 09:48:26;;;;;;;2.60;1.00;;;;;;;19.18;43.17;100128.86;124839;1099;104216;-76
2022/09/19 09:51:10;;;;;;;3.47;1.13;;;;;;;19.29;43.04;100128.80;124789;1099;104322;-78
2022/09/19 09:56:14;;;;;;;1.20;0.98;;;;;;;19.40;42.40;100126.08;126180;1096;102205;-77
2022/09/19 09:57:10;;;;;;;0.97;0.80;;;;;;;19.44;43.21;100126.93;125740;1096;102407;-78
2022/09/19 10:05:50;;;;;;;1.17;0.80;;;;;;;19.61;41.30;100130.35;124973;1096;104201;-77
2022/09/19 10:08:27;;;;;;;2.87;0.90;;;;;;;19.48;41.01;100120.70;124827;1099;104306;-77
2022/09/19 10:11:11;;;;;;;1.00;0.80;;;;;;;19.43;40.46;100125.16;125961;1099;102775;-77
2022/09/19 10:13:48;;;;;;;7.37;1.30;;;;;;;19.43;40.32;100125.16;124802;1099;104231;-77
2022/09/19 10:16:26;;;;;;;3.80;1.07;;;;;;;19.50;40.33;100118.91;124829;1099;102568;-78
2022/09/19 10:19:07;;;;;;;4.90;1.20;;;;;;;19.64;40.96;100116.15;124787;1099;103394;-78
2022/09/19 10:21:43;;;;;;;1.17;0.90;;;;;;;19.65;40.39;100116.14;124934;1096;103812;-78
2022/09/19 10:24:55;;;;;;;2.73;1.03;;;;;;;19.66;40.33;100120.55;125726;1096;104172;-79
2022/09/19 10:27:45;;;;;;;3.23;1.10;;;;;;;19.68;39.99;100118.78;125696;1099;104172;-78
2022/09/19 10:31:07;;;;;;;2.87;1.40;;;;;;;19.85;40.07;100112.45;126382;1099;102035;-78
2022/09/19 10:33:48;;;;;;;1.10;0.87;;;;;;;20.15;40.21;100097.98;125755;1099;102202;-78
2022/09/19 10:36:33;;;;;;;2.60;1.37;;;;;;;20.40;40.56;100111.92;125824;1098;102525;-79
2022/09/19 10:39:12;;;;;;;3.60;1.10;;;;;;;20.57;39.13;100098.41;125818;1099;104150;-79
2022/09/19 10:41:46;;;;;;;3.47;1.30;;;;;;;20.73;39.68;100096.47;125690;1099;102336;-78
2022/09/19 10:47:25;;;;;;;2.47;0.98;;;;;;;20.93;39.43;100106.88;125726;1099;104281;-77
2022/09/19 10:50:20;;;;;;;4.95;0.90;;;;;;;20.98;39.53;100110.36;125654;1099;102805;-78
2022/09/19 10:53:18;;;;;;;1.87;0.77;;;;;;;20.94;39.06;100119.32;125604;1099;104172;-77
2022/09/19 10:56:06;;;;;;;2.47;1.03;;;;;;;20.70;38.89;100115.16;124833;1099;104602;-79
2022/09/19 10:58:44;;;;;;;1.93;1.07;;;;;;;20.55;38.36;100115.30;125449;1099;101995;-79
2022/09/19 11:03:12;;;;;;;1.30;0.93;;;;;;;20.51;38.48;100093.15;124757;1102;104169;-77
2022/09/19 11:06:02;;;;;;;1.23;1.13;;;;;;;20.43;38.18;100103.89;124426;1102;102861;-75
2022/09/19 11:08:51;;;;;;;1.10;0.90;;;;;;;20.35;38.14;100097.78;124203;1102;104150;-76
2022/09/19 11:11:40;;;;;;;2.53;0.90;;;;;;;20.30;37.50;100099.58;125196;1101;103540;-78
2022/09/19 11:15:02;;;;;;;2.15;1.15;;;;;;;20.22;37.88;100107.66;124226;1102;107143;-77
2022/09/19 11:18:13;;;;;;;1.60;0.87;;;;;;;20.00;37.63;100124.75;124326;1102;102852;-76
2022/09/19 11:21:29;;;;;;;1.63;0.90;;;;;;;19.94;37.51;100128.34;124441;1102;102111;-76
2022/09/19 11:24:18;;;;;;;1.80;1.05;;;;;;;19.96;37.10;100129.23;124183;1102;102386;-75
2022/09/19 11:27:04;;;;;;;2.33;1.07;;;;;;;20.10;37.49;100108.67;124573;1102;104258;-75
2022/09/19 11:29:52;;;;;;;1.30;1.03;;;;;;;20.30;36.67;100102.25;124103;1102;102525;-75
2022/09/19 11:32:44;;;;;;;1.13;1.00;;;;;;;20.26;37.35;100108.53;124369;1102;101844;-76
2022/09/19 11:35:31;;;;;;;2.00;0.70;;;;;;;20.23;37.33;100108.56;124225;1102;104166;-77
2022/09/19 11:38:20;;;;;;;2.17;1.30;;;;;;;20.20;37.24;100093.48;124501;1099;104377;-76
2022/09/19 11:41:08;;;;;;;2.47;1.07;;;;;;;20.21;36.89;100094.34;124404;1102;103402;-75
2022/09/19 11:44:00;;;;;;;4.87;1.27;;;;;;;20.28;36.45;100088.94;124396;1099;104150;-75
2022/09/19 11:46:49;;;;;;;2.00;0.90;;;;;;;20.25;37.14;100082.77;124876;1099;102772;-77
2022/09/19 11:49:59;;;;;;;1.60;0.90;;;;;;;20.08;36.93;100088.27;124518;1099;104220;-77
2022/09/19 11:52:41;;;;;;;5.37;1.80;;;;;;;19.88;36.95;100105.34;124419;1099;102877;-76
2022/09/19 11:55:36;;;;;;;3.83;2.13;;;;;;;19.85;36.67;100112.45;124335;1102;117819;-77
2022/09/19 11:58:18;;;;;;;2.93;1.70;;;;;;;19.89;36.71;100100.88;124935;1102;104181;-77
2022/09/19 12:01:09;;;;;;;2.95;1.45;;;;;;;19.97;36.00;100095.49;124437;1102;104319;-77
2022/09/19 12:04:05;;;;;;;2.60;1.50;;;;;;;20.05;36.43;100094.50;124779;1102;104239;-76
2022/09/19 12:07:09;;;;;;;3.43;0.90;;;;;;;20.10;36.07;100091.80;125051;1099;104236;-76
2022/09/19 12:10:00;;;;;;;1.00;0.83;;;;;;;20.14;36.61;100085.55;124427;1102;104590;-77
2022/09/19 12:12:37;;;;;;;1.37;0.90;;;;;;;20.19;36.64;100085.50;125120;1102;103028;-77
2022/09/19 12:15:27;;;;;;;3.80;0.90;;;;;;;20.22;35.58;100085.47;124984;1102;104300;-76
2022/09/19 12:21:11;;;;;;;1.70;0.90;;;;;;;20.36;36.13;100072.88;125035;1099;104172;-79
2022/09/19 12:26:56;;;;;;;1.13;1.00;;;;;;;20.53;35.47;100085.14;124383;1102;104686;-78
2022/09/19 12:29:40;;;;;;;3.47;1.00;;;;;;;20.63;35.57;100086.77;125699;1102;101770;-77
2022/09/19 12:32:25;;;;;;;3.97;0.90;;;;;;;20.69;35.84;100085.86;124994;1102;104310;-78
2022/09/19 12:35:04;;;;;;;0.95;0.95;;;;;;;20.71;35.68;100086.71;124960;1099;102280;-78
2022/09/19 12:37:46;;;;;;;1.93;1.20;;;;;;;20.69;35.35;100078.73;124220;1102;102439;-78
2022/09/19 12:40:30;;;;;;;1.10;0.93;;;;;;;20.70;34.36;100077.84;124295;1099;104199;-75